Have a Safe July 4th! 

Flight Track Log - Related Links

Times and Time Zones

All times are in EDT time to prevent confusion due to time zone crossing. See the C-FTCH flight status page for this flight to view local times or setup timezone preferences in your user account.

Time Position Orientation Groundspeed Altitude Reporting Facility
EDT Latitude Longitude Course Direction KTS MPH feet Rate Location/Type
Wed 07:55:25 PM 51.0500 -114.0500 356° North 160 184 5,200  Level Edmonton Center
Wed 07:56:25 PM 51.0167 -114.0500 180° South 150 173 7,700 1,350 Climbing Edmonton Center
Wed 07:57:25 PM 50.9667 -114.0167 157° South 220 253 7,900 1,000 Climbing Edmonton Center
Wed 07:58:25 PM 50.9833 -113.9333 72° East 210 242 9,700 2,150 Climbing Edmonton Center
Wed 07:59:25 PM 51.0333 -113.9167 12° North 190 219 12,200 2,200 Climbing Edmonton Center
Wed 08:00:00 PM 51.5116 -114.0428 356° North  Level FlightAware Approximate
Wed 08:00:25 PM 51.0833 -113.9167 360° North 190 219 14,100  Level Edmonton Center
Wed 08:01:25 PM 51.1500 -113.9333 351° North 200 230 16,100 1,850 Climbing Edmonton Center
Wed 08:02:25 PM 51.2000 -113.9500 348° North 210 242 17,800 1,600 Climbing Edmonton Center
Wed 08:03:25 PM 51.2667 -113.9667 351° North 210 242 19,300 1,450 Climbing Edmonton Center
Wed 08:04:25 PM 51.3167 -113.9667 360° North 210 242 20,700 1,250 Climbing Edmonton Center
Wed 08:05:25 PM 51.3833 -113.9833 351° North 220 253 21,800 650 Climbing Edmonton Center
Wed 08:06:25 PM 51.4500 -114.0000 351° North 240 276 22,000 100 Climbing Edmonton Center
Wed 08:07:25 PM 51.5167 -114.0167 351° North 260 299 22,000  Level Edmonton Center
Wed 08:08:25 PM 51.6000 -114.0333 353° North 270 311 22,000  Level Edmonton Center
Wed 08:09:25 PM 51.6667 -114.0167 North 270 311 22,000  Level Edmonton Center
Wed 08:10:25 PM 51.7500 -114.0333 353° North 270 311 22,000  Level Edmonton Center
Wed 08:11:25 PM 51.8333 -114.0500 353° North 270 311 22,000  Level Edmonton Center
Wed 08:12:25 PM 51.9000 -114.0667 351° North 270 311 22,000  Level Edmonton Center
Wed 08:13:25 PM 51.9667 -114.0833 351° North 270 311 22,000  Level Edmonton Center
Wed 08:14:25 PM 52.0500 -114.1000 353° North 270 311 22,000  Level Edmonton Center
Wed 08:15:25 PM 52.1167 -114.1167 351° North 270 311 22,000  Level Edmonton Center
Wed 08:16:25 PM 52.2000 -114.1333 353° North 270 311 22,000  Level Edmonton Center
Wed 08:17:25 PM 52.2667 -114.1167 North 270 311 22,000  Level Edmonton Center
Wed 08:18:25 PM 52.3500 -114.1333 353° North 270 311 22,000 -350 Level Edmonton Center
Wed 08:19:25 PM 52.4333 -114.1667 346° North 280 322 21,300 -900 Descending Edmonton Center
Wed 08:20:25 PM 52.5167 -114.1833 353° North 290 334 20,200 -1,200 Descending Edmonton Center
Wed 08:21:25 PM 52.5833 -114.1333 24° Northeast 300 345 18,900 -1,300 Descending Edmonton Center
Wed 08:22:25 PM 52.6833 -114.1000 11° North 310 357 17,600 -1,100 Descending Edmonton Center
Wed 08:23:25 PM 52.7667 -114.0667 14° North 300 345 16,700 -950 Descending Edmonton Center
Wed 08:24:25 PM 52.8333 -114.0167 24° Northeast 300 345 15,700 -1,150 Descending Edmonton Center
Wed 08:25:25 PM 52.9333 -113.9833 11° North 300 345 14,400 -1,100 Descending Edmonton Center
Wed 08:26:25 PM 53.0000 -113.9500 17° North 300 345 13,500 -1,000 Descending Edmonton Center
Wed 08:27:25 PM 53.0833 -113.9000 20° North 300 345 12,400 -1,100 Descending Edmonton Center
Wed 08:28:25 PM 53.1500 -113.8667 17° North 300 345 11,300 -1,050 Descending Edmonton Center
Wed 08:29:25 PM 53.2500 -113.8500 North 280 322 10,300 -1,300 Descending Edmonton Center
Wed 08:30:25 PM 53.3167 -113.8500 360° North 270 311 8,700 -1,250 Descending Edmonton Center
Wed 08:31:25 PM 53.3833 -113.8333 North 230 265 7,800 -850 Descending Edmonton Center
Wed 08:32:25 PM 53.4500 -113.8167 North 230 265 7,000 -700 Descending Edmonton Center
Wed 08:33:25 PM 53.5000 -113.7667 31° Northeast 220 253 6,400 -600 Descending Edmonton Center
Wed 08:34:25 PM 53.5500 -113.7000 38° Northeast 190 219 5,800 -1,100 Descending Edmonton Center
Wed 08:35:25 PM 53.5667 -113.6333 67° East 170 196 4,200 -1,550 Descending Edmonton Center
Wed 08:36:25 PM 53.5667 -113.5833 90° East 130 150 2,700 -700 Descending Edmonton Center
Wed 08:38:25 PM 53.5167 -113.5167 142° Southeast 80 92 2,100 -300 Descending Edmonton Center

Login

Don't have an account? Register now (free) for customized features, flight alerts, and more!